ADDS TAF Board (Experimental) INFO

IDs: Format: Expanded Condensed

Updated at: 2219 UTC 01 Oct 2014

KSFO - San Francisco Intl, CA, US

Issued at 1723 UTC 01 Oct 2014
Time2156Z01/23Z02/00Z02/01Z02/02Z02/03Z02/04Z02/05Z02/06Z02/07Z02/08Z02/09Z02/10Z02/11Z
TypeOBSPRVLPRVLPRVLPRVLPRVLPRVLPRVLPRVLPRVLPRVLPRVLPRVLPRVL
VIS10>6>6>6>6>6>6>6>6>6>6>6>6>6
CIG----------------------------
CoverCLRSKCSKCSKCSKCSKCSKCSKCSKCSKCSKCSKCSKCSKC
FltCat--VFRVFRVFRVFRVFRVFRVFRVFRVFRVFRVFRVFRVFR
WX----------------------------
WDir330290290290290290290VRBVRBVRBVRBVRBVRBVRB
WSpd41515151515154444444
WGst----------------------------
R01/19
XWnd3151515151515VRBVRBVRBVRBVRBVRBVRB
HWnd2-2-2-2-2-2-2VRBVRBVRBVRBVRBVRBVRB
R10/28
XWnd2-2-2-2-2-2-2VRBVRBVRBVRBVRBVRBVRB
HWnd-3-15-15-15-15-15-15VRBVRBVRBVRBVRBVRBVRB
Raw TAF
KSFO 011723Z 0118/0224 VRB04KT P6SM SKC
  FM012300 29015KT P6SM SKC
  FM020500 VRB04KT P6SM SKC
  FM022100 30010KT P6SM SKC


Raw METAR
KSFO 012156Z 33004KT 10SM CLR 30/04 A2987 RMK AO2 SLP114 T03000044 $

TAF Board Legend

Hazard VFR MVFR IFR LIFR
Visibility (sm) >5 3≤X≤5 1≤X<3 <1
Ceiling (100 ft) >30 10≤X≤30 5≤X<10 <5
Wind Speed (kt) <10 10≤X<20 20≤X<30 ≥30
Wind Gust (kt) <15 15≤X<25 25≤X<35 ≥35
Weather No Wx Reported VCTS,-TS,-FZRA TS,FZRA +TS,+FZRA


Page loaded:  22:19 UTC  |   03:19 PM Pacific  |   04:19 PM Mountain  |   05:19 PM Central  |   06:19 PM Eastern

 

ADVISORIES

FORECASTS

FORECASTS

OBSERVATIONS

USER TOOLS

ABOUT US